sensor_id;sensor_type;location;lat;lon;timestamp;P1;P2;P0
76784;PMS7003;66893;44.316;0.092;2024-03-17T00:02:22;23.00;19.25;15.00
76784;PMS7003;66893;44.316;0.092;2024-03-17T00:04:48;23.75;19.75;14.00
76784;PMS7003;66893;44.316;0.092;2024-03-17T00:07:13;24.50;20.00;12.75
76784;PMS7003;66893;44.316;0.092;2024-03-17T00:09:39;24.75;21.50;16.25
76784;PMS7003;66893;44.316;0.092;2024-03-17T00:12:05;23.75;18.75;13.50
76784;PMS7003;66893;44.316;0.092;2024-03-17T00:14:31;21.25;17.50;12.00
76784;PMS7003;66893;44.316;0.092;2024-03-17T00:16:56;23.00;19.25;12.75
76784;PMS7003;66893;44.316;0.092;2024-03-17T00:19:25;20.50;16.75;13.00
76784;PMS7003;66893;44.316;0.092;2024-03-17T00:21:51;22.00;19.50;14.50
76784;PMS7003;66893;44.316;0.092;2024-03-17T00:24:16;22.75;21.00;15.25
76784;PMS7003;66893;44.316;0.092;2024-03-17T00:26:42;21.50;20.00;14.50
76784;PMS7003;66893;44.316;0.092;2024-03-17T00:29:07;20.00;17.50;15.00
76784;PMS7003;66893;44.316;0.092;2024-03-17T00:31:32;21.50;20.25;14.75
76784;PMS7003;66893;44.316;0.092;2024-03-17T00:33:58;23.25;19.25;12.75
76784;PMS7003;66893;44.316;0.092;2024-03-17T00:36:23;19.75;19.50;15.00
76784;PMS7003;66893;44.316;0.092;2024-03-17T00:38:48;23.00;21.25;16.25
76784;PMS7003;66893;44.316;0.092;2024-03-17T00:41:14;23.25;19.00;13.25
76784;PMS7003;66893;44.316;0.092;2024-03-17T00:43:39;22.25;19.25;13.00
76784;PMS7003;66893;44.316;0.092;2024-03-17T00:46:05;19.25;17.50;12.00
76784;PMS7003;66893;44.316;0.092;2024-03-17T00:48:30;21.50;18.50;13.75
76784;PMS7003;66893;44.316;0.092;2024-03-17T00:50:56;18.50;18.50;12.50
76784;PMS7003;66893;44.316;0.092;2024-03-17T00:53:22;19.50;17.25;13.25
76784;PMS7003;66893;44.316;0.092;2024-03-17T00:55:56;18.75;16.50;11.75
76784;PMS7003;66893;44.316;0.092;2024-03-17T00:58:23;19.50;16.25;10.50
76784;PMS7003;66893;44.316;0.092;2024-03-17T01:00:48;21.75;17.00;11.75
76784;PMS7003;66893;44.316;0.092;2024-03-17T01:03:14;22.75;17.25;12.50
76784;PMS7003;66893;44.316;0.092;2024-03-17T01:05:40;17.50;16.50;12.00
76784;PMS7003;66893;44.316;0.092;2024-03-17T01:08:07;13.75;11.75;9.00
76784;PMS7003;66893;44.316;0.092;2024-03-17T01:10:33;24.50;19.50;14.00
76784;PMS7003;66893;44.316;0.092;2024-03-17T01:12:58;22.00;16.75;12.25
76784;PMS7003;66893;44.316;0.092;2024-03-17T01:15:23;19.75;19.00;15.00
76784;PMS7003;66893;44.316;0.092;2024-03-17T01:17:49;17.50;16.75;13.75
76784;PMS7003;66893;44.316;0.092;2024-03-17T01:20:15;18.00;15.75;11.00
76784;PMS7003;66893;44.316;0.092;2024-03-17T01:22:41;13.75;12.50;10.75
76784;PMS7003;66893;44.316;0.092;2024-03-17T01:25:06;17.25;15.25;10.75
76784;PMS7003;66893;44.316;0.092;2024-03-17T01:27:33;17.00;16.25;12.25
76784;PMS7003;66893;44.316;0.092;2024-03-17T01:29:59;17.25;17.00;11.50
76784;PMS7003;66893;44.316;0.092;2024-03-17T01:32:24;21.00;17.50;13.00
76784;PMS7003;66893;44.316;0.092;2024-03-17T01:34:50;18.50;16.25;12.50
76784;PMS7003;66893;44.316;0.092;2024-03-17T01:37:16;20.25;14.25;10.50
76784;PMS7003;66893;44.316;0.092;2024-03-17T01:39:41;17.25;16.25;11.50
76784;PMS7003;66893;44.316;0.092;2024-03-17T01:42:06;19.00;18.00;14.00
76784;PMS7003;66893;44.316;0.092;2024-03-17T01:44:32;16.00;15.00;9.75
76784;PMS7003;66893;44.316;0.092;2024-03-17T01:46:57;18.75;16.50;13.00
76784;PMS7003;66893;44.316;0.092;2024-03-17T01:49:23;15.75;15.25;12.00
76784;PMS7003;66893;44.316;0.092;2024-03-17T01:51:49;15.75;15.75;11.00
76784;PMS7003;66893;44.316;0.092;2024-03-17T01:54:15;19.25;16.75;12.50
76784;PMS7003;66893;44.316;0.092;2024-03-17T01:56:41;17.25;14.25;11.25
76784;PMS7003;66893;44.316;0.092;2024-03-17T01:59:07;20.00;16.00;11.50
76784;PMS7003;66893;44.316;0.092;2024-03-17T02:01:32;15.00;14.00;10.75
76784;PMS7003;66893;44.316;0.092;2024-03-17T02:03:58;15.50;15.25;11.50
76784;PMS7003;66893;44.316;0.092;2024-03-17T02:06:24;14.75;11.25;10.00
76784;PMS7003;66893;44.316;0.092;2024-03-17T02:08:50;20.25;15.25;10.75
76784;PMS7003;66893;44.316;0.092;2024-03-17T02:11:26;17.50;16.00;11.75
76784;PMS7003;66893;44.316;0.092;2024-03-17T02:13:52;13.00;13.00;10.00
76784;PMS7003;66893;44.316;0.092;2024-03-17T02:16:17;15.00;12.00;10.00
76784;PMS7003;66893;44.316;0.092;2024-03-17T02:18:44;15.75;14.00;10.75
76784;PMS7003;66893;44.316;0.092;2024-03-17T02:21:09;15.25;15.25;11.75
76784;PMS7003;66893;44.316;0.092;2024-03-17T02:23:34;18.75;15.50;10.25
76784;PMS7003;66893;44.316;0.092;2024-03-17T02:26:00;15.25;14.25;10.50
76784;PMS7003;66893;44.316;0.092;2024-03-17T02:28:25;17.75;13.75;10.75
76784;PMS7003;66893;44.316;0.092;2024-03-17T02:30:50;14.00;14.00;10.25
76784;PMS7003;66893;44.316;0.092;2024-03-17T02:33:16;18.50;15.75;9.75
76784;PMS7003;66893;44.316;0.092;2024-03-17T02:35:41;18.75;14.75;10.25
76784;PMS7003;66893;44.316;0.092;2024-03-17T02:38:06;15.75;15.75;11.00
76784;PMS7003;66893;44.316;0.092;2024-03-17T02:40:37;18.00;16.00;11.00
76784;PMS7003;66893;44.316;0.092;2024-03-17T02:43:02;17.75;15.50;12.00
76784;PMS7003;66893;44.316;0.092;2024-03-17T02:45:27;20.50;16.50;11.25
76784;PMS7003;66893;44.316;0.092;2024-03-17T02:47:52;18.00;15.50;11.00
76784;PMS7003;66893;44.316;0.092;2024-03-17T02:50:18;18.25;15.00;10.75
76784;PMS7003;66893;44.316;0.092;2024-03-17T02:52:43;16.50;16.00;10.50
76784;PMS7003;66893;44.316;0.092;2024-03-17T02:55:09;16.25;16.00;12.00
76784;PMS7003;66893;44.316;0.092;2024-03-17T02:57:34;15.50;15.00;12.25
76784;PMS7003;66893;44.316;0.092;2024-03-17T03:00:00;15.75;15.50;10.75
76784;PMS7003;66893;44.316;0.092;2024-03-17T03:02:25;13.25;12.75;9.00
76784;PMS7003;66893;44.316;0.092;2024-03-17T03:04:51;12.75;12.25;9.25
76784;PMS7003;66893;44.316;0.092;2024-03-17T03:07:16;16.50;16.50;11.25
76784;PMS7003;66893;44.316;0.092;2024-03-17T03:09:41;19.00;15.00;11.00
76784;PMS7003;66893;44.316;0.092;2024-03-17T03:12:07;14.50;11.75;9.25
76784;PMS7003;66893;44.316;0.092;2024-03-17T03:14:33;15.50;12.50;9.00
76784;PMS7003;66893;44.316;0.092;2024-03-17T03:16:58;16.25;11.50;8.25
76784;PMS7003;66893;44.316;0.092;2024-03-17T03:19:24;14.75;14.00;10.00
76784;PMS7003;66893;44.316;0.092;2024-03-17T03:21:49;13.00;10.75;8.50
76784;PMS7003;66893;44.316;0.092;2024-03-17T03:24:15;10.25;10.00;6.25
76784;PMS7003;66893;44.316;0.092;2024-03-17T03:26:40;14.50;9.75;7.50
76784;PMS7003;66893;44.316;0.092;2024-03-17T03:29:06;14.00;11.50;9.00
76784;PMS7003;66893;44.316;0.092;2024-03-17T03:31:32;11.50;11.25;9.75
76784;PMS7003;66893;44.316;0.092;2024-03-17T03:33:57;10.50;10.50;7.25
76784;PMS7003;66893;44.316;0.092;2024-03-17T03:36:22;9.25;7.00;5.50
76784;PMS7003;66893;44.316;0.092;2024-03-17T03:38:48;11.00;10.25;8.25
76784;PMS7003;66893;44.316;0.092;2024-03-17T03:41:14;9.50;9.50;7.00
76784;PMS7003;66893;44.316;0.092;2024-03-17T03:43:40;8.50;8.50;6.00
76784;PMS7003;66893;44.316;0.092;2024-03-17T03:46:06;12.50;9.75;6.00
76784;PMS7003;66893;44.316;0.092;2024-03-17T03:48:31;10.25;9.25;6.50
76784;PMS7003;66893;44.316;0.092;2024-03-17T03:50:57;9.25;8.25;6.25
76784;PMS7003;66893;44.316;0.092;2024-03-17T03:53:23;7.50;7.50;6.00
76784;PMS7003;66893;44.316;0.092;2024-03-17T03:55:49;7.25;6.00;4.50
76784;PMS7003;66893;44.316;0.092;2024-03-17T03:58:14;6.00;5.00;4.00
76784;PMS7003;66893;44.316;0.092;2024-03-17T04:00:40;11.00;9.00;5.00
76784;PMS7003;66893;44.316;0.092;2024-03-17T04:03:05;9.00;7.75;5.75
76784;PMS7003;66893;44.316;0.092;2024-03-17T04:05:30;10.00;7.25;5.25
76784;PMS7003;66893;44.316;0.092;2024-03-17T04:07:56;6.00;4.50;4.00
76784;PMS7003;66893;44.316;0.092;2024-03-17T04:10:21;11.75;9.00;7.50
76784;PMS7003;66893;44.316;0.092;2024-03-17T04:12:48;8.00;8.00;6.00
76784;PMS7003;66893;44.316;0.092;2024-03-17T04:15:13;10.25;9.25;6.25
76784;PMS7003;66893;44.316;0.092;2024-03-17T04:17:39;7.50;7.50;6.00
76784;PMS7003;66893;44.316;0.092;2024-03-17T04:20:05;11.25;9.50;6.50
76784;PMS7003;66893;44.316;0.092;2024-03-17T04:22:33;8.25;8.25;6.25
76784;PMS7003;66893;44.316;0.092;2024-03-17T04:24:58;8.25;8.00;5.75
76784;PMS7003;66893;44.316;0.092;2024-03-17T04:27:24;11.75;7.25;6.00
76784;PMS7003;66893;44.316;0.092;2024-03-17T04:29:50;8.25;8.25;6.25
76784;PMS7003;66893;44.316;0.092;2024-03-17T04:32:15;9.75;7.00;4.50
76784;PMS7003;66893;44.316;0.092;2024-03-17T04:34:41;8.00;8.00;6.25
76784;PMS7003;66893;44.316;0.092;2024-03-17T04:37:08;6.00;6.00;4.50
76784;PMS7003;66893;44.316;0.092;2024-03-17T04:39:35;7.00;7.00;5.75
76784;PMS7003;66893;44.316;0.092;2024-03-17T04:42:03;9.00;7.50;6.00
76784;PMS7003;66893;44.316;0.092;2024-03-17T04:44:29;9.25;7.00;6.00
76784;PMS7003;66893;44.316;0.092;2024-03-17T04:46:54;9.25;8.50;6.00
76784;PMS7003;66893;44.316;0.092;2024-03-17T04:49:19;8.25;8.00;5.50
76784;PMS7003;66893;44.316;0.092;2024-03-17T04:51:45;8.25;6.50;4.25
76784;PMS7003;66893;44.316;0.092;2024-03-17T04:54:10;9.25;8.00;5.00
76784;PMS7003;66893;44.316;0.092;2024-03-17T04:56:36;8.75;8.75;6.75
76784;PMS7003;66893;44.316;0.092;2024-03-17T04:59:02;12.50;8.25;5.50
76784;PMS7003;66893;44.316;0.092;2024-03-17T05:01:27;10.00;7.25;5.00
76784;PMS7003;66893;44.316;0.092;2024-03-17T05:03:52;9.00;8.25;6.25
76784;PMS7003;66893;44.316;0.092;2024-03-17T05:06:18;9.75;8.25;6.50
76784;PMS7003;66893;44.316;0.092;2024-03-17T05:08:43;10.25;8.00;5.75
76784;PMS7003;66893;44.316;0.092;2024-03-17T05:11:09;10.50;7.00;5.75
76784;PMS7003;66893;44.316;0.092;2024-03-17T05:13:35;6.75;6.25;5.25
76784;PMS7003;66893;44.316;0.092;2024-03-17T05:16:00;9.25;7.25;5.50
76784;PMS7003;66893;44.316;0.092;2024-03-17T05:18:27;8.00;8.00;6.25
76784;PMS7003;66893;44.316;0.092;2024-03-17T05:20:59;9.25;9.25;7.50
76784;PMS7003;66893;44.316;0.092;2024-03-17T05:23:28;9.75;9.75;8.50
76784;PMS7003;66893;44.316;0.092;2024-03-17T05:25:54;9.25;8.00;5.50
76784;PMS7003;66893;44.316;0.092;2024-03-17T05:28:19;8.50;7.25;6.25
76784;PMS7003;66893;44.316;0.092;2024-03-17T05:30:45;6.25;6.25;6.00
76784;PMS7003;66893;44.316;0.092;2024-03-17T05:33:10;8.50;8.00;6.25
76784;PMS7003;66893;44.316;0.092;2024-03-17T05:35:35;9.75;7.50;6.00
76784;PMS7003;66893;44.316;0.092;2024-03-17T05:38:01;9.50;9.00;7.25
76784;PMS7003;66893;44.316;0.092;2024-03-17T05:40:26;8.00;7.75;6.00
76784;PMS7003;66893;44.316;0.092;2024-03-17T05:42:51;7.00;6.25;5.75
76784;PMS7003;66893;44.316;0.092;2024-03-17T05:45:17;8.00;8.00;6.00
76784;PMS7003;66893;44.316;0.092;2024-03-17T05:47:42;8.50;7.50;6.25
76784;PMS7003;66893;44.316;0.092;2024-03-17T05:50:07;4.75;4.75;3.25
76784;PMS7003;66893;44.316;0.092;2024-03-17T05:52:34;9.75;9.25;8.00
76784;PMS7003;66893;44.316;0.092;2024-03-17T05:54:59;6.50;6.00;5.25
76784;PMS7003;66893;44.316;0.092;2024-03-17T05:57:25;6.50;4.25;3.00
76784;PMS7003;66893;44.316;0.092;2024-03-17T05:59:51;8.50;8.50;7.75
76784;PMS7003;66893;44.316;0.092;2024-03-17T06:02:16;8.50;7.50;6.00
76784;PMS7003;66893;44.316;0.092;2024-03-17T06:04:43;8.00;8.00;5.75
76784;PMS7003;66893;44.316;0.092;2024-03-17T06:07:09;9.25;6.25;5.75
76784;PMS7003;66893;44.316;0.092;2024-03-17T06:09:34;9.00;7.25;5.50
76784;PMS7003;66893;44.316;0.092;2024-03-17T06:11:59;8.75;6.00;4.25
76784;PMS7003;66893;44.316;0.092;2024-03-17T06:14:25;8.75;8.00;5.50
76784;PMS7003;66893;44.316;0.092;2024-03-17T06:16:50;8.75;7.00;5.25
76784;PMS7003;66893;44.316;0.092;2024-03-17T06:19:16;9.75;8.75;6.50
76784;PMS7003;66893;44.316;0.092;2024-03-17T06:21:41;8.00;8.00;6.25
76784;PMS7003;66893;44.316;0.092;2024-03-17T06:24:07;9.00;8.25;5.50
76784;PMS7003;66893;44.316;0.092;2024-03-17T06:26:32;5.00;3.75;3.00
76784;PMS7003;66893;44.316;0.092;2024-03-17T06:29:00;8.00;8.00;5.00
76784;PMS7003;66893;44.316;0.092;2024-03-17T06:31:25;8.75;8.00;6.25
76784;PMS7003;66893;44.316;0.092;2024-03-17T06:33:50;9.00;6.25;5.00
76784;PMS7003;66893;44.316;0.092;2024-03-17T06:36:16;9.75;5.75;4.75
76784;PMS7003;66893;44.316;0.092;2024-03-17T06:38:42;6.00;6.00;5.00
76784;PMS7003;66893;44.316;0.092;2024-03-17T06:41:07;6.50;5.50;5.00
76784;PMS7003;66893;44.316;0.092;2024-03-17T06:43:34;8.00;7.00;5.25
76784;PMS7003;66893;44.316;0.092;2024-03-17T06:46:00;7.00;6.00;5.50
76784;PMS7003;66893;44.316;0.092;2024-03-17T06:48:26;7.25;6.50;5.25
76784;PMS7003;66893;44.316;0.092;2024-03-17T06:50:51;8.25;8.25;5.50
76784;PMS7003;66893;44.316;0.092;2024-03-17T06:53:17;7.00;7.00;5.00
76784;PMS7003;66893;44.316;0.092;2024-03-17T06:55:43;5.50;5.50;4.25
76784;PMS7003;66893;44.316;0.092;2024-03-17T06:58:08;5.75;4.75;4.75
76784;PMS7003;66893;44.316;0.092;2024-03-17T07:00:34;8.75;7.75;5.00
76784;PMS7003;66893;44.316;0.092;2024-03-17T07:02:59;8.50;7.75;5.50
76784;PMS7003;66893;44.316;0.092;2024-03-17T07:05:24;8.00;5.00;4.00
76784;PMS7003;66893;44.316;0.092;2024-03-17T07:07:50;5.75;4.50;4.00
76784;PMS7003;66893;44.316;0.092;2024-03-17T07:10:16;6.00;6.00;4.75
76784;PMS7003;66893;44.316;0.092;2024-03-17T07:12:42;3.75;3.75;3.00
76784;PMS7003;66893;44.316;0.092;2024-03-17T07:15:07;6.25;6.00;4.00
76784;PMS7003;66893;44.316;0.092;2024-03-17T07:17:33;6.25;5.25;5.00
76784;PMS7003;66893;44.316;0.092;2024-03-17T07:19:59;5.75;5.25;5.00
76784;PMS7003;66893;44.316;0.092;2024-03-17T07:22:24;6.75;5.75;5.00
76784;PMS7003;66893;44.316;0.092;2024-03-17T07:24:51;8.00;8.00;5.25
76784;PMS7003;66893;44.316;0.092;2024-03-17T07:27:20;6.00;5.00;4.00
76784;PMS7003;66893;44.316;0.092;2024-03-17T07:29:46;6.00;6.00;5.00
76784;PMS7003;66893;44.316;0.092;2024-03-17T07:32:11;8.00;6.00;5.00
76784;PMS7003;66893;44.316;0.092;2024-03-17T07:34:37;7.50;5.50;4.50
76784;PMS7003;66893;44.316;0.092;2024-03-17T07:37:02;8.00;8.00;5.00
76784;PMS7003;66893;44.316;0.092;2024-03-17T07:39:31;5.25;5.25;4.00
76784;PMS7003;66893;44.316;0.092;2024-03-17T07:41:59;6.25;4.25;3.75
76784;PMS7003;66893;44.316;0.092;2024-03-17T07:44:26;4.00;4.00;3.00
76784;PMS7003;66893;44.316;0.092;2024-03-17T07:46:54;4.75;4.75;4.00
76784;PMS7003;66893;44.316;0.092;2024-03-17T07:49:19;6.25;4.00;3.50
76784;PMS7003;66893;44.316;0.092;2024-03-17T07:51:45;6.25;4.25;3.25
76784;PMS7003;66893;44.316;0.092;2024-03-17T07:54:10;3.00;3.00;2.75
76784;PMS7003;66893;44.316;0.092;2024-03-17T07:56:36;3.25;3.25;3.00
76784;PMS7003;66893;44.316;0.092;2024-03-17T07:59:01;5.25;4.00;3.00
76784;PMS7003;66893;44.316;0.092;2024-03-17T08:01:26;3.00;3.00;1.50
76784;PMS7003;66893;44.316;0.092;2024-03-17T08:03:52;4.50;4.00;3.00
76784;PMS7003;66893;44.316;0.092;2024-03-17T08:06:20;3.50;3.50;3.00
76784;PMS7003;66893;44.316;0.092;2024-03-17T08:08:46;5.25;3.25;2.50
76784;PMS7003;66893;44.316;0.092;2024-03-17T08:11:12;7.50;3.75;3.00
76784;PMS7003;66893;44.316;0.092;2024-03-17T08:13:38;5.75;2.75;2.50
76784;PMS7003;66893;44.316;0.092;2024-03-17T08:16:04;3.00;3.00;2.75
76784;PMS7003;66893;44.316;0.092;2024-03-17T08:18:30;2.25;2.25;2.00
76784;PMS7003;66893;44.316;0.092;2024-03-17T08:20:56;5.00;3.50;3.00
76784;PMS7003;66893;44.316;0.092;2024-03-17T08:23:22;2.25;2.25;2.00
76784;PMS7003;66893;44.316;0.092;2024-03-17T08:25:56;3.00;3.00;2.00
76784;PMS7003;66893;44.316;0.092;2024-03-17T08:28:22;3.75;2.25;2.00
76784;PMS7003;66893;44.316;0.092;2024-03-17T08:30:54;4.00;3.00;2.00
76784;PMS7003;66893;44.316;0.092;2024-03-17T08:33:20;1.50;1.50;1.50
76784;PMS7003;66893;44.316;0.092;2024-03-17T08:35:59;2.50;2.00;1.25
76784;PMS7003;66893;44.316;0.092;2024-03-17T08:38:25;4.00;3.00;2.25
76784;PMS7003;66893;44.316;0.092;2024-03-17T08:40:52;5.75;3.00;2.25
76784;PMS7003;66893;44.316;0.092;2024-03-17T08:43:18;3.00;3.00;2.75
76784;PMS7003;66893;44.316;0.092;2024-03-17T08:45:44;2.00;2.00;2.00
76784;PMS7003;66893;44.316;0.092;2024-03-17T08:48:09;4.00;3.25;3.00
76784;PMS7003;66893;44.316;0.092;2024-03-17T08:50:38;2.75;1.75;1.00
76784;PMS7003;66893;44.316;0.092;2024-03-17T08:53:03;3.00;3.00;2.00
76784;PMS7003;66893;44.316;0.092;2024-03-17T08:55:28;2.50;2.50;2.00
76784;PMS7003;66893;44.316;0.092;2024-03-17T08:57:54;4.50;3.25;2.50
76784;PMS7003;66893;44.316;0.092;2024-03-17T09:00:19;3.50;3.50;2.75
76784;PMS7003;66893;44.316;0.092;2024-03-17T09:02:44;2.50;2.00;1.25
76784;PMS7003;66893;44.316;0.092;2024-03-17T09:05:10;2.00;2.00;1.25
76784;PMS7003;66893;44.316;0.092;2024-03-17T09:07:37;6.00;3.00;2.00
76784;PMS7003;66893;44.316;0.092;2024-03-17T09:10:03;4.25;2.50;1.75
76784;PMS7003;66893;44.316;0.092;2024-03-17T09:12:29;3.00;2.00;1.75
76784;PMS7003;66893;44.316;0.092;2024-03-17T09:14:54;4.50;2.50;2.00
76784;PMS7003;66893;44.316;0.092;2024-03-17T09:17:19;3.50;2.00;2.00
76784;PMS7003;66893;44.316;0.092;2024-03-17T09:19:46;3.00;3.00;2.00
76784;PMS7003;66893;44.316;0.092;2024-03-17T09:22:12;2.75;2.75;2.00
76784;PMS7003;66893;44.316;0.092;2024-03-17T09:24:38;2.50;2.00;2.00
76784;PMS7003;66893;44.316;0.092;2024-03-17T09:27:03;4.00;2.25;2.00
76784;PMS7003;66893;44.316;0.092;2024-03-17T09:29:30;5.00;3.00;2.00
76784;PMS7003;66893;44.316;0.092;2024-03-17T09:31:55;2.25;2.25;2.00
76784;PMS7003;66893;44.316;0.092;2024-03-17T09:34:20;4.75;2.00;1.75
76784;PMS7003;66893;44.316;0.092;2024-03-17T09:36:46;2.00;2.00;2.00
76784;PMS7003;66893;44.316;0.092;2024-03-17T09:39:12;3.00;3.00;2.75
76784;PMS7003;66893;44.316;0.092;2024-03-17T09:41:39;3.00;3.00;2.00
76784;PMS7003;66893;44.316;0.092;2024-03-17T09:44:05;3.00;3.00;2.00
76784;PMS7003;66893;44.316;0.092;2024-03-17T09:46:31;3.50;3.50;2.25
76784;PMS7003;66893;44.316;0.092;2024-03-17T09:48:56;5.25;3.00;2.25
76784;PMS7003;66893;44.316;0.092;2024-03-17T09:51:23;5.00;2.50;2.00
76784;PMS7003;66893;44.316;0.092;2024-03-17T09:53:49;2.75;2.75;2.75
76784;PMS7003;66893;44.316;0.092;2024-03-17T09:56:15;1.50;1.50;1.50
76784;PMS7003;66893;44.316;0.092;2024-03-17T09:58:41;3.75;2.25;1.25
76784;PMS7003;66893;44.316;0.092;2024-03-17T10:01:07;2.50;2.00;2.00
76784;PMS7003;66893;44.316;0.092;2024-03-17T10:03:45;0.00;0.00;0.00
76784;PMS7003;66893;44.316;0.092;2024-03-17T10:06:14;2.00;2.00;1.75
76784;PMS7003;66893;44.316;0.092;2024-03-17T10:08:49;3.00;3.00;3.00
76784;PMS7003;66893;44.316;0.092;2024-03-17T10:11:16;5.75;3.50;2.75
76784;PMS7003;66893;44.316;0.092;2024-03-17T10:13:42;3.75;2.75;1.25
76784;PMS7003;66893;44.316;0.092;2024-03-17T10:16:17;1.75;1.50;1.00
76784;PMS7003;66893;44.316;0.092;2024-03-17T10:18:45;2.75;2.75;2.00
76784;PMS7003;66893;44.316;0.092;2024-03-17T10:21:21;2.00;2.00;2.00
76784;PMS7003;66893;44.316;0.092;2024-03-17T10:23:51;3.50;3.00;2.25
76784;PMS7003;66893;44.316;0.092;2024-03-17T10:26:29;2.75;2.75;1.75
76784;PMS7003;66893;44.316;0.092;2024-03-17T10:28:54;2.50;2.50;2.00
76784;PMS7003;66893;44.316;0.092;2024-03-17T10:31:20;2.00;2.00;2.00
76784;PMS7003;66893;44.316;0.092;2024-03-17T10:33:46;1.75;1.75;1.25
76784;PMS7003;66893;44.316;0.092;2024-03-17T10:36:25;3.00;3.00;3.00
76784;PMS7003;66893;44.316;0.092;2024-03-17T10:38:51;3.00;3.00;2.00
76784;PMS7003;66893;44.316;0.092;2024-03-17T10:41:16;2.00;2.00;2.00
76784;PMS7003;66893;44.316;0.092;2024-03-17T10:43:42;4.25;4.00;3.00
76784;PMS7003;66893;44.316;0.092;2024-03-17T10:46:07;2.50;2.00;2.00
76784;PMS7003;66893;44.316;0.092;2024-03-17T10:48:33;5.00;3.00;3.00
76784;PMS7003;66893;44.316;0.092;2024-03-17T10:50:59;4.00;4.00;3.25
76784;PMS7003;66893;44.316;0.092;2024-03-17T10:53:27;4.00;3.00;2.75
76784;PMS7003;66893;44.316;0.092;2024-03-17T10:56:00;3.00;1.50;1.00
76784;PMS7003;66893;44.316;0.092;2024-03-17T11:00:53;4.00;3.25;2.25
76784;PMS7003;66893;44.316;0.092;2024-03-17T11:03:21;3.00;3.00;2.25
76784;PMS7003;66893;44.316;0.092;2024-03-17T11:05:47;3.00;3.00;3.00
76784;PMS7003;66893;44.316;0.092;2024-03-17T11:08:14;4.50;3.00;2.50
76784;PMS7003;66893;44.316;0.092;2024-03-17T11:10:41;5.50;5.50;4.00
76784;PMS7003;66893;44.316;0.092;2024-03-17T11:13:26;8.50;6.50;4.75
76784;PMS7003;66893;44.316;0.092;2024-03-17T11:15:52;5.50;5.50;4.00
76784;PMS7003;66893;44.316;0.092;2024-03-17T11:21:10;9.50;9.50;7.50
76784;PMS7003;66893;44.316;0.092;2024-03-17T11:23:36;2.25;0.00;0.00
76784;PMS7003;66893;44.316;0.092;2024-03-17T11:26:03;27.25;24.25;17.25
76784;PMS7003;66893;44.316;0.092;2024-03-17T11:31:06;21.75;21.75;18.25
76784;PMS7003;66893;44.316;0.092;2024-03-17T11:33:51;15.25;14.25;12.25
76784;PMS7003;66893;44.316;0.092;2024-03-17T11:38:51;15.25;13.75;11.75
76784;PMS7003;66893;44.316;0.092;2024-03-17T11:44:23;23.50;21.75;15.75
76784;PMS7003;66893;44.316;0.092;2024-03-17T11:51:47;35.75;30.25;20.50
76784;PMS7003;66893;44.316;0.092;2024-03-17T11:54:16;29.00;25.75;18.50
76784;PMS7003;66893;44.316;0.092;2024-03-17T11:56:44;28.75;27.50;21.50
76784;PMS7003;66893;44.316;0.092;2024-03-17T11:59:10;26.25;25.25;18.00
76784;PMS7003;66893;44.316;0.092;2024-03-17T12:01:36;25.00;23.00;17.50
76784;PMS7003;66893;44.316;0.092;2024-03-17T12:04:01;22.50;21.50;16.25
76784;PMS7003;66893;44.316;0.092;2024-03-17T12:06:31;22.75;21.50;14.50
76784;PMS7003;66893;44.316;0.092;2024-03-17T12:12:04;21.75;19.00;15.00
76784;PMS7003;66893;44.316;0.092;2024-03-17T12:14:30;22.50;18.00;13.75
76784;PMS7003;66893;44.316;0.092;2024-03-17T12:16:56;21.50;17.25;14.75
76784;PMS7003;66893;44.316;0.092;2024-03-17T12:19:22;18.00;18.00;14.50
76784;PMS7003;66893;44.316;0.092;2024-03-17T12:21:49;16.00;15.25;13.50
76784;PMS7003;66893;44.316;0.092;2024-03-17T12:24:15;15.50;14.75;11.75
76784;PMS7003;66893;44.316;0.092;2024-03-17T12:26:42;21.75;16.75;13.25
76784;PMS7003;66893;44.316;0.092;2024-03-17T12:31:48;16.00;15.75;13.00
76784;PMS7003;66893;44.316;0.092;2024-03-17T12:34:13;15.50;15.00;11.25
76784;PMS7003;66893;44.316;0.092;2024-03-17T12:36:39;17.50;14.25;11.50
76784;PMS7003;66893;44.316;0.092;2024-03-17T12:39:11;17.00;17.00;12.25
76784;PMS7003;66893;44.316;0.092;2024-03-17T12:41:36;15.25;15.25;11.25
76784;PMS7003;66893;44.316;0.092;2024-03-17T12:44:02;16.25;16.25;13.00
76784;PMS7003;66893;44.316;0.092;2024-03-17T12:46:28;13.75;13.25;10.75
76784;PMS7003;66893;44.316;0.092;2024-03-17T12:49:00;12.50;12.50;10.75
76784;PMS7003;66893;44.316;0.092;2024-03-17T12:51:25;12.00;12.00;9.00
76784;PMS7003;66893;44.316;0.092;2024-03-17T12:54:11;14.25;12.25;10.25
76784;PMS7003;66893;44.316;0.092;2024-03-17T12:56:36;15.25;14.25;10.75
76784;PMS7003;66893;44.316;0.092;2024-03-17T12:59:20;11.75;11.75;9.50
76784;PMS7003;66893;44.316;0.092;2024-03-17T13:02:06;13.00;10.75;8.00
76784;PMS7003;66893;44.316;0.092;2024-03-17T13:04:35;15.75;12.25;9.50
76784;PMS7003;66893;44.316;0.092;2024-03-17T13:07:09;12.50;10.75;9.50
76784;PMS7003;66893;44.316;0.092;2024-03-17T13:09:34;9.75;9.25;7.50
76784;PMS7003;66893;44.316;0.092;2024-03-17T13:12:00;11.75;10.25;8.50
76784;PMS7003;66893;44.316;0.092;2024-03-17T13:14:25;11.00;10.00;7.00
76784;PMS7003;66893;44.316;0.092;2024-03-17T13:16:50;13.00;8.50;7.00
76784;PMS7003;66893;44.316;0.092;2024-03-17T13:19:16;9.50;9.50;7.50
76784;PMS7003;66893;44.316;0.092;2024-03-17T13:21:41;14.25;11.25;8.25
76784;PMS7003;66893;44.316;0.092;2024-03-17T13:24:06;6.00;6.00;4.75
76784;PMS7003;66893;44.316;0.092;2024-03-17T13:26:32;11.25;7.75;6.00
76784;PMS7003;66893;44.316;0.092;2024-03-17T13:28:58;5.00;5.00;3.75
76784;PMS7003;66893;44.316;0.092;2024-03-17T13:31:23;8.75;7.00;5.75
76784;PMS7003;66893;44.316;0.092;2024-03-17T13:33:49;7.25;7.00;6.00
76784;PMS7003;66893;44.316;0.092;2024-03-17T13:36:14;11.75;9.50;6.75
76784;PMS7003;66893;44.316;0.092;2024-03-17T13:38:41;6.00;6.00;4.25
76784;PMS7003;66893;44.316;0.092;2024-03-17T13:41:06;5.00;5.00;3.50
76784;PMS7003;66893;44.316;0.092;2024-03-17T13:43:31;7.75;7.00;6.50
76784;PMS7003;66893;44.316;0.092;2024-03-17T13:45:57;7.75;7.75;5.75
76784;PMS7003;66893;44.316;0.092;2024-03-17T13:48:22;3.00;2.25;1.25
76784;PMS7003;66893;44.316;0.092;2024-03-17T13:50:48;5.50;5.50;5.00
76784;PMS7003;66893;44.316;0.092;2024-03-17T13:53:14;8.00;6.00;5.25
76784;PMS7003;66893;44.316;0.092;2024-03-17T13:55:40;6.50;6.50;5.00
76784;PMS7003;66893;44.316;0.092;2024-03-17T13:58:05;6.25;6.25;4.25
76784;PMS7003;66893;44.316;0.092;2024-03-17T14:00:31;7.75;6.50;5.50
76784;PMS7003;66893;44.316;0.092;2024-03-17T14:02:57;7.00;5.25;4.25
76784;PMS7003;66893;44.316;0.092;2024-03-17T14:05:22;5.50;5.50;4.00
76784;PMS7003;66893;44.316;0.092;2024-03-17T14:07:48;7.00;6.75;4.75
76784;PMS7003;66893;44.316;0.092;2024-03-17T14:10:15;3.75;3.25;2.25
76784;PMS7003;66893;44.316;0.092;2024-03-17T14:12:41;7.25;5.00;4.00
76784;PMS7003;66893;44.316;0.092;2024-03-17T14:15:07;7.50;6.00;4.75
76784;PMS7003;66893;44.316;0.092;2024-03-17T14:17:35;5.25;5.25;4.00
76784;PMS7003;66893;44.316;0.092;2024-03-17T14:20:01;5.25;5.25;3.75
76784;PMS7003;66893;44.316;0.092;2024-03-17T14:22:26;5.50;5.00;4.50
76784;PMS7003;66893;44.316;0.092;2024-03-17T14:24:51;8.25;5.25;4.25
76784;PMS7003;66893;44.316;0.092;2024-03-17T14:27:17;7.25;5.00;4.00
76784;PMS7003;66893;44.316;0.092;2024-03-17T14:29:45;5.75;5.00;4.00